Time;durP1;ratioP1;P1;durP2;ratioP2;P2;SDS_P1;SDS_P2;PMS_P1;PMS_P2;Temp;Humidity;BMP_temperature;BMP_pressure;BME280_temperature;BME280_humidity;BME280_pressure;Samples;Min_cycle;Max_cycle;Signal;HPM_P1;HPM_P2
2020/12/26 00:00:42;;;;;;;24.17;8.03;;;;;;;0.32;100.00;101543.34;4977739;28;20228;-72
2020/12/26 00:03:10;;;;;;;20.80;8.23;;;;;;;0.10;100.00;101552.25;4978508;28;20186;-72
2020/12/26 00:05:38;;;;;;;22.37;7.77;;;;;;;0.07;100.00;101558.81;4993752;28;20236;-72
2020/12/26 00:08:06;;;;;;;20.63;8.50;;;;;;;0.27;100.00;101548.38;4994119;28;20201;-72
2020/12/26 00:10:32;;;;;;;33.30;9.23;;;;;;;0.36;100.00;101557.97;4993465;28;20221;-72
2020/12/26 00:12:58;;;;;;;23.73;8.30;;;;;;;0.27;100.00;101559.06;4993686;28;20182;-72
2020/12/26 00:15:26;;;;;;;35.63;9.60;;;;;;;0.41;100.00;101551.88;4976448;28;20678;-73
2020/12/26 00:17:54;;;;;;;20.63;8.20;;;;;;;0.30;100.00;101559.53;4994166;28;20336;-73
2020/12/26 00:20:22;;;;;;;18.30;8.33;;;;;;;0.30;100.00;101564.06;4976491;28;20186;-72
2020/12/26 00:22:47;;;;;;;27.77;8.47;;;;;;;0.33;100.00;101569.88;4993320;28;20261;-72
2020/12/26 00:25:13;;;;;;;31.10;8.93;;;;;;;0.14;100.00;101574.91;4976471;28;20189;-72
2020/12/26 00:27:39;;;;;;;30.93;8.70;;;;;;;0.21;100.00;101567.81;4993640;28;20671;-71
2020/12/26 00:30:07;;;;;;;33.03;8.40;;;;;;;0.24;100.00;101564.75;4992786;28;20184;-72
2020/12/26 00:32:35;;;;;;;35.87;8.60;;;;;;;0.31;100.00;101560.34;4977835;28;20184;-72
2020/12/26 00:35:01;;;;;;;42.73;9.40;;;;;;;0.10;100.00;101558.41;4977018;28;20192;-72
2020/12/26 00:37:29;;;;;;;27.97;8.43;;;;;;;0.26;100.00;101562.78;4997835;28;20217;-72
2020/12/26 00:39:54;;;;;;;25.13;8.90;;;;;;;0.33;100.00;101558.31;4980492;28;20189;-72
2020/12/26 00:42:20;;;;;;;24.60;8.30;;;;;;;0.51;100.00;101554.25;4979625;28;20244;-72
2020/12/26 00:44:45;;;;;;;27.63;8.27;;;;;;;0.37;100.00;101560.47;4980560;28;20181;-72
2020/12/26 00:47:13;;;;;;;24.20;9.43;;;;;;;0.32;100.00;101554.84;4996100;28;20228;-71
2020/12/26 00:49:49;;;;;;;26.10;8.93;;;;;;;0.39;100.00;101553.09;4981078;28;20189;-73
2020/12/26 00:52:14;;;;;;;34.37;9.30;;;;;;;0.44;100.00;101550.66;5010852;28;20633;-73
2020/12/26 00:54:41;;;;;;;17.77;8.53;;;;;;;0.65;100.00;101546.22;4977616;28;20177;-73
2020/12/26 00:57:11;;;;;;;25.17;9.50;;;;;;;0.67;100.00;101557.56;4977027;28;20279;-71
2020/12/26 00:59:39;;;;;;;36.47;8.97;;;;;;;0.62;100.00;101546.59;4978169;28;20710;-72
2020/12/26 01:02:08;;;;;;;35.60;8.97;;;;;;;0.77;100.00;101547.41;4977256;28;20222;-72
2020/12/26 01:04:46;;;;;;;17.23;9.50;;;;;;;0.77;100.00;101539.41;4978748;28;20571;-72
2020/12/26 01:07:12;;;;;;;16.30;8.90;;;;;;;0.62;100.00;101538.56;5010299;28;20273;-72
2020/12/26 01:09:38;;;;;;;19.40;8.90;;;;;;;0.60;100.00;101527.25;5029907;28;20681;-72
2020/12/26 01:12:07;;;;;;;24.50;9.23;;;;;;;0.63;100.00;101524.22;5045554;28;20213;-72
2020/12/26 01:14:34;;;;;;;17.80;8.80;;;;;;;0.73;100.00;101519.38;5028868;28;20609;-72
2020/12/26 01:17:00;;;;;;;17.67;8.40;;;;;;;0.79;100.00;101515.97;5007846;28;20967;-72
2020/12/26 01:19:28;;;;;;;30.83;9.40;;;;;;;0.80;100.00;101523.78;4992741;28;20218;-72
2020/12/26 01:21:56;;;;;;;26.17;9.50;;;;;;;0.71;100.00;101520.59;5007454;28;20624;-72
2020/12/26 01:24:22;;;;;;;22.70;8.97;;;;;;;0.67;100.00;101513.97;5028085;28;20212;-73
2020/12/26 01:26:50;;;;;;;17.47;8.70;;;;;;;0.81;100.00;101521.97;4995398;28;20220;-72
2020/12/26 01:29:16;;;;;;;19.03;8.53;;;;;;;0.63;100.00;101524.22;5011969;28;20189;-71
2020/12/26 01:31:48;;;;;;;17.87;9.03;;;;;;;0.55;100.00;101523.47;5024189;28;20584;-72
2020/12/26 01:34:16;;;;;;;16.83;9.27;;;;;;;0.67;100.00;101524.66;4959562;28;20659;-72
2020/12/26 01:36:42;;;;;;;15.53;9.13;;;;;;;0.66;100.00;101521.19;4991318;28;20232;-72
2020/12/26 01:39:08;;;;;;;21.53;9.37;;;;;;;0.69;100.00;101534.16;4992136;28;20217;-73
2020/12/26 01:41:34;;;;;;;23.73;9.53;;;;;;;0.69;100.00;101525.31;4975336;28;20596;-73
2020/12/26 01:44:02;;;;;;;19.37;9.17;;;;;;;0.64;100.00;101541.91;4960246;28;20185;-72
2020/12/26 01:46:32;;;;;;;23.27;9.53;;;;;;;0.66;100.00;101539.88;5007328;28;20694;-72
2020/12/26 01:49:01;;;;;;;16.37;9.93;;;;;;;0.54;100.00;101544.03;4991854;28;20285;-72
2020/12/26 01:51:35;;;;;;;19.57;9.67;;;;;;;0.64;100.00;101536.56;4975381;28;20229;-72
2020/12/26 01:54:09;;;;;;;21.13;9.37;;;;;;;0.61;100.00;101541.47;4992077;28;20189;-74
2020/12/26 01:56:34;;;;;;;15.20;9.57;;;;;;;0.57;100.00;101541.00;4991373;28;20228;-72
2020/12/26 01:59:02;;;;;;;17.73;10.07;;;;;;;0.65;100.00;101532.88;4991912;28;20217;-72
2020/12/26 02:01:37;;;;;;;14.93;10.73;;;;;;;0.64;100.00;101525.88;4991346;28;20244;-74
2020/12/26 02:04:03;;;;;;;12.53;9.77;;;;;;;0.77;100.00;101528.72;4991787;28;20272;-72
2020/12/26 02:06:33;;;;;;;21.67;9.83;;;;;;;0.77;100.00;101531.38;4974539;28;20244;-72
2020/12/26 02:09:01;;;;;;;18.37;10.03;;;;;;;0.82;100.00;101534.28;4992418;28;20207;-73
2020/12/26 02:11:29;;;;;;;15.23;10.47;;;;;;;0.80;100.00;101533.66;4974599;28;20706;-73
2020/12/26 02:13:59;;;;;;;19.53;10.47;;;;;;;0.72;100.00;101530.28;5008599;28;20643;-72
2020/12/26 02:16:24;;;;;;;18.77;10.80;;;;;;;0.76;100.00;101527.03;4983055;28;20222;-72
2020/12/26 02:18:53;;;;;;;17.13;10.50;;;;;;;0.78;100.00;101530.34;4977267;28;20220;-72
2020/12/26 02:21:22;;;;;;;16.87;11.00;;;;;;;0.78;100.00;101525.81;4976707;28;20260;-71
2020/12/26 02:23:48;;;;;;;21.17;10.67;;;;;;;0.79;100.00;101526.69;4962261;28;20196;-72
2020/12/26 02:26:16;;;;;;;16.33;10.57;;;;;;;0.80;100.00;101515.78;4980688;28;20236;-73
2020/12/26 02:28:41;;;;;;;19.77;10.53;;;;;;;0.95;100.00;101519.25;4975158;28;20185;-73
2020/12/26 02:31:10;;;;;;;19.43;11.40;;;;;;;0.83;100.00;101525.28;4990630;28;20721;-72
2020/12/26 02:33:36;;;;;;;25.10;11.67;;;;;;;0.95;100.00;101519.25;4990943;28;20189;-73
2020/12/26 02:36:02;;;;;;;24.87;11.87;;;;;;;0.89;100.00;101519.16;4990228;28;20220;-72
2020/12/26 02:38:27;;;;;;;16.60;11.17;;;;;;;0.75;100.00;101522.69;4958715;28;20695;-72
2020/12/26 02:40:58;;;;;;;27.07;12.70;;;;;;;0.85;100.00;101517.91;4990445;28;20236;-72
2020/12/26 02:43:25;;;;;;;24.60;12.33;;;;;;;0.96;100.00;101515.53;4975578;28;20177;-72
2020/12/26 02:45:57;;;;;;;22.23;12.60;;;;;;;1.20;100.00;101524.03;4960716;28;20264;-72
2020/12/26 02:48:23;;;;;;;25.10;13.03;;;;;;;1.02;100.00;101516.63;4974996;28;20205;-73
2020/12/26 02:50:48;;;;;;;29.27;13.57;;;;;;;0.87;100.00;101515.84;4973820;28;20603;-72
2020/12/26 02:53:17;;;;;;;23.80;13.20;;;;;;;0.88;100.00;101510.31;4990875;28;20236;-72
2020/12/26 02:55:45;;;;;;;24.97;13.83;;;;;;;1.01;100.00;101506.94;4991019;28;20620;-72
2020/12/26 02:58:13;;;;;;;22.70;14.30;;;;;;;0.96;100.00;101490.66;4974892;28;20279;-72
2020/12/26 03:00:38;;;;;;;24.83;14.13;;;;;;;0.95;100.00;101486.31;4959562;28;20225;-72
2020/12/26 03:03:06;;;;;;;24.67;14.33;;;;;;;1.00;100.00;101484.72;4974620;28;20189;-73
2020/12/26 03:05:32;;;;;;;28.90;13.50;;;;;;;0.94;100.00;101484.69;4989395;28;20623;-72
2020/12/26 03:07:57;;;;;;;26.37;14.27;;;;;;;1.08;100.00;101475.75;5007099;28;20565;-73
2020/12/26 03:10:25;;;;;;;31.83;13.47;;;;;;;1.13;100.00;101482.19;4974067;28;20224;-72
2020/12/26 03:12:53;;;;;;;23.63;14.13;;;;;;;1.26;100.00;101485.81;4974378;28;20178;-72
2020/12/26 03:15:23;;;;;;;24.70;13.70;;;;;;;1.15;100.00;101486.34;4957812;28;20201;-73
2020/12/26 03:17:50;;;;;;;25.07;13.77;;;;;;;1.13;100.00;101488.34;4974918;28;20624;-72
2020/12/26 03:20:15;;;;;;;25.27;13.93;;;;;;;1.23;100.00;101480.84;5006293;28;20212;-72
2020/12/26 03:22:41;;;;;;;28.63;15.03;;;;;;;1.18;100.00;101477.91;4991598;28;20508;-71
2020/12/26 03:25:07;;;;;;;30.53;14.33;;;;;;;1.31;100.00;101483.38;4989687;28;20639;-73
2020/12/26 03:27:37;;;;;;;25.67;14.30;;;;;;;1.26;100.00;101475.13;4998989;28;20653;-71
2020/12/26 03:30:03;;;;;;;28.30;13.00;;;;;;;1.37;100.00;101487.13;4997381;28;20227;-73
2020/12/26 03:32:29;;;;;;;28.43;14.83;;;;;;;1.15;100.00;101483.66;5014123;28;20642;-73
2020/12/26 03:34:59;;;;;;;24.70;14.73;;;;;;;1.04;100.00;101474.47;5030104;28;20181;-71
2020/12/26 03:37:28;;;;;;;24.27;14.03;;;;;;;1.10;100.00;101473.72;5013639;28;20225;-73
2020/12/26 03:39:56;;;;;;;21.80;14.37;;;;;;;1.21;100.00;101472.19;4998370;28;20646;-74
2020/12/26 03:42:24;;;;;;;25.13;13.83;;;;;;;1.14;100.00;101476.66;4996563;28;20227;-73
2020/12/26 03:44:52;;;;;;;24.23;15.00;;;;;;;1.10;100.00;101471.88;4997781;28;20189;-73
2020/12/26 03:47:20;;;;;;;23.60;15.03;;;;;;;1.19;100.00;101466.22;5029509;28;20212;-74
2020/12/26 03:49:48;;;;;;;23.13;14.73;;;;;;;1.36;100.00;101462.22;5014248;28;20643;-74
2020/12/26 03:52:16;;;;;;;25.90;14.83;;;;;;;1.24;100.00;101462.94;4996920;28;20894;-73
2020/12/26 03:54:41;;;;;;;28.03;15.60;;;;;;;1.32;100.00;101458.28;4997325;28;20250;-74
2020/12/26 03:57:07;;;;;;;22.70;14.73;;;;;;;1.36;100.00;101459.56;4980234;28;20229;-71
2020/12/26 03:59:35;;;;;;;26.67;15.43;;;;;;;1.41;100.00;101457.13;5013688;28;20217;-72
2020/12/26 04:02:00;;;;;;;24.30;15.00;;;;;;;1.49;100.00;101465.00;4997800;28;20224;-72
2020/12/26 04:04:26;;;;;;;26.40;15.00;;;;;;;1.37;100.00;101461.19;4997418;28;20197;-73
2020/12/26 04:06:52;;;;;;;26.87;15.63;;;;;;;1.33;100.00;101461.78;4997599;28;20651;-71
2020/12/26 04:09:17;;;;;;;23.77;15.20;;;;;;;1.55;100.00;101454.34;4998010;28;20201;-73
2020/12/26 04:11:46;;;;;;;21.87;14.87;;;;;;;1.48;100.00;101449.16;4997226;28;20332;-73
2020/12/26 04:14:14;;;;;;;21.80;14.33;;;;;;;1.40;100.00;101450.13;5014142;28;20215;-71
2020/12/26 04:16:42;;;;;;;26.07;14.70;;;;;;;1.30;100.00;101444.28;5013937;28;20224;-72
2020/12/26 04:19:07;;;;;;;25.80;15.57;;;;;;;1.46;100.00;101433.28;4998029;28;20282;-73
2020/12/26 04:21:33;;;;;;;24.77;15.50;;;;;;;1.34;100.00;101442.06;4996468;28;20228;-73
2020/12/26 04:24:01;;;;;;;22.47;14.43;;;;;;;1.44;100.00;101446.03;4997553;28;20177;-73
2020/12/26 04:26:29;;;;;;;24.60;14.60;;;;;;;1.34;100.00;101440.19;4995706;28;20592;-73
2020/12/26 04:28:56;;;;;;;20.17;14.50;;;;;;;1.53;100.00;101434.16;4980952;28;20220;-73
2020/12/26 04:31:25;;;;;;;26.07;14.60;;;;;;;1.50;100.00;101429.19;4996211;28;20295;-75
2020/12/26 04:33:50;;;;;;;22.77;13.90;;;;;;;1.65;100.00;101421.91;5029673;28;20223;-73
2020/12/26 04:36:16;;;;;;;24.93;15.63;;;;;;;1.63;100.00;101426.59;4995803;28;20224;-72
2020/12/26 04:38:46;;;;;;;23.20;14.27;;;;;;;1.67;100.00;101430.56;4996173;28;20212;-74
2020/12/26 04:41:13;;;;;;;20.80;13.90;;;;;;;1.50;100.00;101429.19;5008415;28;20245;-71
2020/12/26 04:43:41;;;;;;;22.93;14.10;;;;;;;1.39;100.00;101427.06;4977506;28;20193;-74
2020/12/26 04:46:11;;;;;;;20.80;14.57;;;;;;;1.47;100.00;101421.56;4984164;28;20216;-73
2020/12/26 04:48:37;;;;;;;24.20;13.83;;;;;;;1.64;100.00;101420.25;4980702;28;20260;-74
2020/12/26 04:51:03;;;;;;;25.50;14.23;;;;;;;1.61;100.00;101415.25;4995987;28;20224;-72
2020/12/26 04:53:33;;;;;;;26.83;14.53;;;;;;;1.55;100.00;101416.06;4996872;28;20676;-72
2020/12/26 04:56:03;;;;;;;21.30;14.70;;;;;;;1.64;100.00;101415.69;5012294;28;20219;-73
2020/12/26 04:58:29;;;;;;;27.17;16.07;;;;;;;1.56;100.00;101417.72;4996389;28;20216;-73
2020/12/26 05:01:00;;;;;;;25.60;14.83;;;;;;;1.69;100.00;101399.06;5013518;28;20255;-72
2020/12/26 05:03:31;;;;;;;23.97;14.83;;;;;;;1.70;100.00;101406.88;4997829;28;20185;-73
2020/12/26 05:06:05;;;;;;;22.57;14.13;;;;;;;1.83;100.00;101408.81;5028381;28;20724;-73
2020/12/26 05:08:32;;;;;;;25.83;15.43;;;;;;;1.71;100.00;101415.75;5012688;28;20265;-72
2020/12/26 05:10:58;;;;;;;22.33;15.37;;;;;;;1.62;100.00;101419.63;5028620;28;20216;-73
2020/12/26 05:13:26;;;;;;;25.87;16.10;;;;;;;1.69;100.00;101413.28;4996547;28;20239;-73
2020/12/26 05:15:54;;;;;;;24.73;16.57;;;;;;;1.75;100.00;101408.97;4995161;28;20303;-73
2020/12/26 05:18:22;;;;;;;23.63;14.53;;;;;;;1.94;100.00;101388.50;4995917;28;20220;-73
2020/12/26 05:20:50;;;;;;;26.53;14.83;;;;;;;1.78;100.00;101392.53;4996499;28;20243;-72
2020/12/26 05:23:18;;;;;;;22.70;14.07;;;;;;;1.89;100.00;101403.50;4996384;28;20655;-73
2020/12/26 05:25:54;;;;;;;20.63;14.33;;;;;;;1.85;100.00;101386.19;4995265;28;20216;-72
2020/12/26 05:28:31;;;;;;;21.40;14.93;;;;;;;1.85;100.00;101383.50;4997113;28;20204;-73
2020/12/26 05:30:56;;;;;;;20.37;13.93;;;;;;;1.95;100.00;101392.00;5028305;28;20228;-72
2020/12/26 05:33:22;;;;;;;20.87;14.40;;;;;;;1.74;100.00;101394.78;5029595;28;20169;-72
2020/12/26 05:35:49;;;;;;;24.33;14.80;;;;;;;1.81;100.00;101394.78;4994400;28;20228;-74
2020/12/26 05:38:20;;;;;;;21.57;14.23;;;;;;;1.84;100.00;101386.38;5012101;28;20271;-73
2020/12/26 05:40:49;;;;;;;24.03;16.03;;;;;;;1.94;100.00;101385.81;4995395;28;20266;-74
2020/12/26 05:43:18;;;;;;;19.47;15.50;;;;;;;1.85;100.00;101386.19;4995504;28;20173;-73
2020/12/26 05:45:44;;;;;;;17.83;14.17;;;;;;;1.90;100.00;101385.56;4994451;28;20220;-73
2020/12/26 05:48:19;;;;;;;20.07;14.10;;;;;;;1.94;100.00;101388.50;5011726;28;20247;-73
2020/12/26 05:50:45;;;;;;;23.93;14.13;;;;;;;1.89;100.00;101391.94;5027040;28;20216;-73
2020/12/26 05:53:19;;;;;;;18.33;12.77;;;;;;;1.98;100.00;101387.06;4995043;28;20180;-72
2020/12/26 05:55:45;;;;;;;15.70;12.97;;;;;;;1.93;100.00;101376.13;4994439;28;20217;-72
2020/12/26 05:58:13;;;;;;;19.83;12.70;;;;;;;2.02;100.00;101377.59;5011336;28;20613;-73
2020/12/26 06:00:40;;;;;;;18.40;12.13;;;;;;;1.90;100.00;101372.19;5010892;28;20224;-73
2020/12/26 06:03:27;;;;;;;18.83;12.67;;;;;;;1.89;100.00;101375.88;4978951;28;20181;-73
2020/12/26 06:06:03;;;;;;;17.50;12.17;;;;;;;1.95;100.00;101376.75;5027030;28;20228;-73
2020/12/26 06:08:29;;;;;;;18.97;12.43;;;;;;;1.77;100.00;101372.13;4995575;28;20623;-73
2020/12/26 06:11:00;;;;;;;18.03;12.10;;;;;;;1.98;100.00;101370.19;4994520;28;20274;-74
2020/12/26 06:13:27;;;;;;;21.70;12.30;;;;;;;1.86;100.00;101371.75;4995275;28;20184;-73
2020/12/26 06:15:54;;;;;;;16.63;13.40;;;;;;;2.08;100.00;101374.13;5010296;28;20251;-74
2020/12/26 06:18:24;;;;;;;17.80;14.10;;;;;;;1.98;100.00;101381.72;4994750;28;20303;-74
2020/12/26 06:20:53;;;;;;;18.37;13.73;;;;;;;1.87;100.00;101383.28;4994125;28;20256;-73
2020/12/26 06:23:25;;;;;;;21.13;12.80;;;;;;;1.97;100.00;101385.41;5011456;28;20643;-73
2020/12/26 06:25:52;;;;;;;17.57;12.40;;;;;;;1.97;100.00;101387.25;4994582;28;20602;-73
2020/12/26 06:28:28;;;;;;;19.93;12.50;;;;;;;1.97;100.00;101385.41;4996531;28;20647;-72
2020/12/26 06:31:04;;;;;;;17.90;12.70;;;;;;;1.97;100.00;101388.06;4993840;28;20236;-72
2020/12/26 06:33:30;;;;;;;18.23;12.63;;;;;;;1.93;100.00;101389.50;4995317;28;20282;-72
2020/12/26 06:35:59;;;;;;;17.70;13.00;;;;;;;1.87;100.00;101377.94;4993745;28;20718;-72
2020/12/26 06:38:28;;;;;;;18.00;12.93;;;;;;;1.88;100.00;101384.94;5011546;28;20283;-72
2020/12/26 06:41:00;;;;;;;14.73;12.43;;;;;;;1.98;100.00;101380.91;5026610;28;20224;-73
2020/12/26 06:43:54;;;;;;;18.20;12.17;;;;;;;2.05;100.00;101376.38;5010808;28;20188;-73
2020/12/26 06:46:22;;;;;;;21.00;11.13;;;;;;;2.09;100.00;101383.81;5009787;28;20592;-72
2020/12/26 06:48:55;;;;;;;17.33;11.57;;;;;;;2.00;100.00;101376.16;5010420;28;20209;-72
2020/12/26 06:51:42;;;;;;;14.53;11.27;;;;;;;2.14;100.00;101381.34;4994232;28;20611;-72
2020/12/26 06:54:08;;;;;;;18.37;11.07;;;;;;;1.90;100.00;101378.38;5010339;28;20224;-73
2020/12/26 06:56:33;;;;;;;15.90;11.63;;;;;;;1.98;100.00;101381.72;5026328;28;20256;-72
2020/12/26 06:59:11;;;;;;;16.47;11.67;;;;;;;2.03;100.00;101381.09;5011738;28;20303;-72
2020/12/26 07:01:46;;;;;;;15.30;11.47;;;;;;;2.02;100.00;101382.97;5009941;28;20243;-73
2020/12/26 07:04:21;;;;;;;16.17;11.47;;;;;;;2.16;100.00;101373.97;5010039;28;20189;-73
2020/12/26 07:06:59;;;;;;;12.80;11.27;;;;;;;2.21;100.00;101365.31;4994814;28;20270;-73
2020/12/26 07:09:39;;;;;;;20.43;12.97;;;;;;;2.05;100.00;101371.84;4995865;28;20220;-73
2020/12/26 07:12:07;;;;;;;17.10;11.17;;;;;;;2.17;100.00;101367.56;5011084;28;20255;-73
2020/12/26 07:14:47;;;;;;;15.47;11.00;;;;;;;2.14;100.00;101369.81;4993833;28;20177;-72
2020/12/26 07:17:13;;;;;;;18.17;11.53;;;;;;;2.09;100.00;101369.59;4978137;28;20224;-73
2020/12/26 07:19:45;;;;;;;16.90;12.60;;;;;;;1.91;100.00;101363.97;4993900;28;20705;-72
2020/12/26 07:22:26;;;;;;;15.13;11.13;;;;;;;2.08;100.00;101371.44;5009848;28;20232;-72
2020/12/26 07:24:53;;;;;;;15.03;10.27;;;;;;;2.02;100.00;101377.59;4994416;28;20185;-73
2020/12/26 07:27:19;;;;;;;13.90;10.57;;;;;;;2.05;100.00;101376.38;4988238;28;20228;-72
2020/12/26 07:29:53;;;;;;;17.30;10.83;;;;;;;2.16;100.00;101373.97;4991566;28;20761;-71
2020/12/26 07:32:37;;;;;;;13.97;10.80;;;;;;;2.18;100.00;101371.91;5012034;28;20224;-72
2020/12/26 07:35:16;;;;;;;19.83;12.83;;;;;;;2.28;100.00;101377.69;5013487;28;20729;-72
2020/12/26 07:37:43;;;;;;;43.73;24.90;;;;;;;2.36;100.00;101370.31;5030914;28;20248;-72
2020/12/26 07:40:14;;;;;;;26.97;15.10;;;;;;;2.32;100.00;101376.25;4997459;28;20184;-72
2020/12/26 07:42:42;;;;;;;30.60;18.23;;;;;;;2.13;100.00;101376.22;5011459;28;20193;-72
2020/12/26 07:45:11;;;;;;;17.33;12.13;;;;;;;2.22;100.00;101367.78;4994318;28;20725;-72
2020/12/26 07:47:40;;;;;;;16.67;12.50;;;;;;;2.21;100.00;101376.84;5011534;28;20240;-72
2020/12/26 07:50:09;;;;;;;16.43;11.17;;;;;;;2.15;100.00;101383.00;4994706;28;20177;-73
2020/12/26 07:52:37;;;;;;;16.97;10.97;;;;;;;2.09;100.00;101383.00;4978782;28;20181;-72
2020/12/26 07:55:03;;;;;;;13.37;9.90;;;;;;;2.42;100.00;101382.09;5011017;28;20189;-72
2020/12/26 07:57:29;;;;;;;13.37;9.90;;;;;;;2.34;100.00;101376.88;4994696;28;20225;-72
2020/12/26 07:59:57;;;;;;;16.73;9.60;;;;;;;2.34;100.00;101390.28;4979140;28;20221;-71
2020/12/26 08:02:25;;;;;;;13.90;9.40;;;;;;;2.16;100.00;101387.34;4995204;28;20347;-71
2020/12/26 08:04:51;;;;;;;11.83;8.50;;;;;;;2.34;100.00;101387.59;5011750;28;20713;-71
2020/12/26 08:07:17;;;;;;;11.23;8.90;;;;;;;2.42;100.00;101387.44;5012072;28;20229;-72
2020/12/26 08:09:52;;;;;;;9.97;8.20;;;;;;;2.29;100.00;101384.72;5013094;28;20258;-72
2020/12/26 08:12:23;;;;;;;10.47;8.30;;;;;;;2.34;100.00;101392.97;4996281;28;20231;-72
2020/12/26 08:15:01;;;;;;;13.47;8.63;;;;;;;2.26;100.00;101385.13;4997727;28;20185;-72
2020/12/26 08:17:27;;;;;;;10.43;8.27;;;;;;;2.31;100.00;101385.34;5002414;28;20216;-73
2020/12/26 08:19:57;;;;;;;8.73;7.73;;;;;;;2.35;100.00;101383.91;5003476;28;20197;-72
2020/12/26 08:22:23;;;;;;;13.83;8.23;;;;;;;2.28;100.00;101390.28;5000236;28;20236;-73
2020/12/26 08:25:07;;;;;;;9.77;8.27;;;;;;;2.37;100.00;101387.22;4997171;28;20192;-73
2020/12/26 08:27:33;;;;;;;7.93;7.13;;;;;;;2.54;100.00;101392.00;4997382;28;20246;-73
2020/12/26 08:30:07;;;;;;;10.90;7.30;;;;;;;2.53;100.00;101392.22;4997025;28;20255;-74
2020/12/26 08:32:38;;;;;;;10.27;7.33;;;;;;;2.41;100.00;101388.47;4996611;28;20256;-72
2020/12/26 08:35:05;;;;;;;12.40;7.80;;;;;;;2.53;100.00;101389.53;4996118;28;20651;-72
2020/12/26 08:37:38;;;;;;;8.43;7.10;;;;;;;2.63;100.00;101392.63;4993924;28;20570;-72
2020/12/26 08:40:05;;;;;;;10.87;7.40;;;;;;;2.67;100.00;101390.19;4994130;28;20682;-74
2020/12/26 08:42:30;;;;;;;12.23;7.17;;;;;;;2.64;100.00;101399.63;4996401;28;20905;-73
2020/12/26 08:44:58;;;;;;;9.07;6.80;;;;;;;2.64;100.00;101400.50;4980346;28;20189;-71
2020/12/26 08:47:33;;;;;;;11.37;6.50;;;;;;;2.81;100.00;101407.94;5012894;28;20715;-72
2020/12/26 08:50:01;;;;;;;7.93;6.43;;;;;;;2.69;100.00;101398.00;4997368;28;20184;-72
2020/12/26 08:52:27;;;;;;;9.10;6.27;;;;;;;2.77;100.00;101389.78;5013084;28;20684;-72
2020/12/26 08:55:05;;;;;;;9.00;6.03;;;;;;;2.69;100.00;101396.16;5010923;28;20179;-73
2020/12/26 08:57:31;;;;;;;10.97;7.10;;;;;;;2.60;100.00;101390.34;5011601;28;20217;-72
2020/12/26 09:00:19;;;;;;;8.50;6.67;;;;;;;2.71;100.00;101391.44;5014532;28;20227;-72
2020/12/26 09:02:53;;;;;;;11.00;6.60;;;;;;;2.93;100.00;101384.00;5032299;28;20739;-74
2020/12/26 09:05:26;;;;;;;7.13;5.13;;;;;;;3.11;100.00;101387.72;5016023;28;20180;-71
2020/12/26 09:08:05;;;;;;;5.17;4.30;;;;;;;3.21;100.00;101377.41;5007386;28;20220;-72
2020/12/26 09:10:34;;;;;;;8.33;5.27;;;;;;;3.30;100.00;101376.19;4994252;28;20267;-73
2020/12/26 09:13:07;;;;;;;6.47;4.70;;;;;;;3.40;100.00;101363.97;4978145;28;20182;-73
2020/12/26 09:15:57;;;;;;;7.67;4.20;;;;;;;3.30;100.00;101366.25;4993132;28;20222;-71
2020/12/26 09:18:27;;;;;;;7.57;4.10;;;;;;;3.13;100.00;101364.19;4977169;28;20221;-72
2020/12/26 09:20:59;;;;;;;8.03;4.50;;;;;;;3.13;100.00;101362.34;5023906;28;20248;-72
2020/12/26 09:23:39;;;;;;;6.93;4.37;;;;;;;3.20;100.00;101368.53;4997514;28;20185;-72
2020/12/26 09:26:09;;;;;;;7.30;4.10;;;;;;;3.32;100.00;101368.75;4995481;28;20217;-72
2020/12/26 09:28:48;;;;;;;7.13;4.30;;;;;;;3.16;100.00;101364.59;5012651;28;20208;-72
2020/12/26 09:31:15;;;;;;;6.13;3.83;;;;;;;3.08;100.00;101355.97;5009241;28;20268;-73
2020/12/26 09:33:43;;;;;;;9.80;4.10;;;;;;;3.07;100.00;101354.28;4993179;28;20216;-72
2020/12/26 09:36:14;;;;;;;6.03;3.93;;;;;;;3.13;100.00;101351.63;4976205;28;20251;-72
2020/12/26 09:38:40;;;;;;;5.93;4.07;;;;;;;3.03;100.00;101355.75;4998870;28;20694;-72
2020/12/26 09:41:12;;;;;;;16.70;9.17;;;;;;;3.17;100.00;101341.31;5034554;28;20224;-73
2020/12/26 09:43:40;;;;;;;21.70;11.60;;;;;;;3.05;100.00;101340.25;5029784;28;20203;-72
2020/12/26 09:46:08;;;;;;;15.53;8.30;;;;;;;3.08;100.00;101337.19;4995879;28;20216;-72
2020/12/26 09:48:33;;;;;;;16.43;9.67;;;;;;;3.07;100.00;101332.84;4980062;28;20213;-72
2020/12/26 09:51:01;;;;;;;17.77;10.67;;;;;;;3.10;100.00;101332.44;5012542;28;20220;-73
2020/12/26 09:53:27;;;;;;;13.87;9.03;;;;;;;3.08;100.00;101332.63;5011803;28;20561;-73
2020/12/26 09:55:53;;;;;;;11.83;5.43;;;;;;;3.20;100.00;101327.44;4993086;28;20312;-72
2020/12/26 09:58:19;;;;;;;7.60;5.00;;;;;;;3.19;100.00;101325.81;5009056;28;20297;-72
2020/12/26 10:00:45;;;;;;;7.03;4.57;;;;;;;3.25;100.00;101328.47;5028325;28;20217;-71
2020/12/26 10:03:10;;;;;;;9.47;4.87;;;;;;;3.35;100.00;101325.34;4999021;28;20613;-71
2020/12/26 10:05:37;;;;;;;7.03;4.33;;;;;;;3.12;100.00;101319.63;4979930;28;20263;-72
2020/12/26 10:08:05;;;;;;;6.67;4.00;;;;;;;3.26;100.00;101315.88;4994040;28;20197;-71
2020/12/26 10:10:33;;;;;;;11.40;4.73;;;;;;;3.44;100.00;101304.28;5004844;28;20225;-72
2020/12/26 10:12:59;;;;;;;8.37;3.93;;;;;;;3.49;100.00;101311.69;5012022;28;20661;-71
2020/12/26 10:15:25;;;;;;;5.77;3.97;;;;;;;3.47;100.00;101303.03;4994214;28;20185;-71
2020/12/26 10:17:51;;;;;;;6.23;4.50;;;;;;;3.51;100.00;101293.53;4995197;28;20213;-72
2020/12/26 10:20:16;;;;;;;9.77;4.43;;;;;;;3.51;100.00;101288.97;5010383;28;20208;-72
2020/12/26 10:22:47;;;;;;;7.50;4.13;;;;;;;3.43;100.00;101283.84;5011841;28;20177;-72
2020/12/26 10:25:12;;;;;;;7.97;4.40;;;;;;;3.55;100.00;101289.38;4994409;28;20278;-70
2020/12/26 10:27:40;;;;;;;7.23;4.37;;;;;;;3.31;100.00;101297.28;4994248;28;20220;-71
2020/12/26 10:30:09;;;;;;;6.03;4.40;;;;;;;3.54;100.00;101283.19;5023939;28;20185;-71
2020/12/26 10:32:37;;;;;;;7.13;4.80;;;;;;;3.55;100.00;101279.47;4995099;28;20184;-71
2020/12/26 10:35:05;;;;;;;8.67;4.53;;;;;;;3.48;100.00;101278.66;4995026;28;20189;-73
2020/12/26 10:37:31;;;;;;;7.90;5.00;;;;;;;3.61;100.00;101272.44;5009836;28;20403;-71
2020/12/26 10:39:59;;;;;;;6.07;4.50;;;;;;;3.71;100.00;101270.13;4992307;28;20259;-73
2020/12/26 10:42:25;;;;;;;8.00;5.60;;;;;;;3.68;100.00;101266.00;4993843;28;20252;-72
2020/12/26 10:44:53;;;;;;;6.57;4.97;;;;;;;3.69;100.00;101256.06;5025711;28;20189;-72
2020/12/26 10:47:19;;;;;;;6.13;5.07;;;;;;;3.54;100.00;101245.59;4990034;28;20212;-73
2020/12/26 10:49:44;;;;;;;6.80;4.83;;;;;;;3.65;100.00;101257.53;4959319;28;20190;-71
2020/12/26 10:52:12;;;;;;;6.70;4.60;;;;;;;3.72;100.00;101252.94;5025673;28;20258;-71
2020/12/26 10:54:38;;;;;;;7.23;5.47;;;;;;;3.83;100.00;101253.13;5018105;28;20211;-71
2020/12/26 10:57:06;;;;;;;6.73;5.50;;;;;;;3.63;100.00;101241.63;4984760;28;20694;-72
2020/12/26 10:59:37;;;;;;;7.10;5.30;;;;;;;3.72;100.00;101232.31;5020531;28;20731;-71
2020/12/26 11:02:03;;;;;;;6.53;5.23;;;;;;;3.66;100.00;101235.81;5012430;28;20287;-71
2020/12/26 11:04:29;;;;;;;8.27;5.67;;;;;;;3.58;100.00;101229.88;4994142;28;20283;-72
2020/12/26 11:06:57;;;;;;;9.23;6.40;;;;;;;3.74;100.00;101224.84;5017658;28;20220;-73
2020/12/26 11:09:22;;;;;;;8.03;6.40;;;;;;;3.65;100.00;101220.75;4995115;28;20200;-71
2020/12/26 11:11:49;;;;;;;9.67;6.80;;;;;;;3.70;100.00;101225.47;4993919;28;20593;-73
2020/12/26 11:14:15;;;;;;;9.20;6.27;;;;;;;3.76;100.00;101217.41;4994158;28;20213;-71
2020/12/26 11:16:45;;;;;;;7.87;6.13;;;;;;;3.74;100.00;101203.38;5008738;28;20223;-71
2020/12/26 11:19:13;;;;;;;8.07;6.13;;;;;;;3.81;100.00;101214.91;4979766;28;20240;-71
2020/12/26 11:21:39;;;;;;;9.63;7.20;;;;;;;3.75;100.00;101204.19;5001705;28;20221;-73